createdAt,value
2023-05-07T00:00:38.973Z,7.55
2023-05-07T00:03:41.564Z,6.93
2023-05-07T00:06:43.926Z,6.30
2023-05-07T00:09:46.221Z,7.97
2023-05-07T00:12:48.630Z,7.05
2023-05-07T00:15:50.952Z,6.85
2023-05-07T00:18:53.932Z,6.82
2023-05-07T00:21:57.066Z,7.28
2023-05-07T00:24:59.861Z,6.88
2023-05-07T00:28:05.012Z,7.80
2023-05-07T00:31:07.236Z,7.90
2023-05-07T00:34:09.654Z,7.03
2023-05-07T00:37:13.126Z,6.53
2023-05-07T00:40:15.663Z,6.40
2023-05-07T00:43:18.282Z,6.90
2023-05-07T00:46:22.595Z,7.68
2023-05-07T00:49:33.796Z,6.40
2023-05-07T00:52:36.097Z,7.13
2023-05-07T00:55:38.983Z,6.85
2023-05-07T00:58:42.024Z,8.15
2023-05-07T01:01:44.391Z,6.80
2023-05-07T01:04:46.856Z,7.05
2023-05-07T01:07:52.137Z,7.80
2023-05-07T01:10:56.050Z,8.40
2023-05-07T01:14:00.484Z,6.93
2023-05-07T01:17:02.984Z,6.32
2023-05-07T01:20:06.935Z,7.63
2023-05-07T01:23:12.118Z,8.05
2023-05-07T01:26:15.048Z,7.65
2023-05-07T01:29:20.882Z,8.18
2023-05-07T01:32:41.818Z,7.68
2023-05-07T01:35:48.604Z,8.52
2023-05-07T01:38:51.353Z,8.13
2023-05-07T01:41:56.706Z,7.07
2023-05-07T01:45:00.243Z,7.82
2023-05-07T01:48:04.238Z,7.15
2023-05-07T01:51:07.385Z,7.82
2023-05-07T01:54:09.766Z,8.00
2023-05-07T01:57:12.278Z,7.63
2023-05-07T02:00:14.965Z,8.65
2023-05-07T02:03:20.908Z,7.55
2023-05-07T02:06:37.422Z,9.05
2023-05-07T02:09:41.708Z,8.40
2023-05-07T02:12:44.460Z,6.40
2023-05-07T02:15:50.482Z,7.95
2023-05-07T02:18:53.463Z,7.25
2023-05-07T02:21:56.606Z,7.65
2023-05-07T02:24:58.897Z,6.85
2023-05-07T02:28:01.133Z,7.72
2023-05-07T02:31:29.997Z,8.30
2023-05-07T02:34:32.307Z,6.78
2023-05-07T02:37:34.602Z,6.78
2023-05-07T02:40:39.928Z,6.65
2023-05-07T02:43:42.149Z,6.55
2023-05-07T02:46:45.500Z,6.00
2023-05-07T02:49:48.981Z,6.72
2023-05-07T02:52:51.334Z,7.57
2023-05-07T02:56:03.009Z,6.25
2023-05-07T02:59:05.232Z,6.78
2023-05-07T03:02:11.960Z,6.80
2023-05-07T03:05:15.565Z,6.40
2023-05-07T03:08:18.836Z,7.00
2023-05-07T03:11:21.283Z,7.47
2023-05-07T03:14:23.538Z,7.85
2023-05-07T03:17:25.989Z,8.48
2023-05-07T03:20:28.308Z,7.93
2023-05-07T03:23:30.948Z,6.35
2023-05-07T03:26:33.223Z,7.40
2023-05-07T03:29:36.284Z,6.72
2023-05-07T03:32:38.821Z,6.15
2023-05-07T03:35:44.450Z,7.32
2023-05-07T03:38:50.539Z,7.03
2023-05-07T03:41:56.151Z,7.65
2023-05-07T03:44:58.508Z,7.85
2023-05-07T03:48:00.995Z,7.50
2023-05-07T03:51:03.452Z,7.05
2023-05-07T03:54:09.076Z,6.68
2023-05-07T03:57:12.544Z,7.18
2023-05-07T04:00:15.765Z,7.22
2023-05-07T04:03:24.043Z,6.82
2023-05-07T04:06:26.784Z,8.88
2023-05-07T04:09:29.289Z,7.22
2023-05-07T04:12:33.123Z,7.10
2023-05-07T04:15:37.062Z,8.55
2023-05-07T04:18:42.877Z,7.93
2023-05-07T04:21:45.953Z,7.70
2023-05-07T04:24:48.298Z,7.30
2023-05-07T04:27:51.884Z,7.28
2023-05-07T04:30:54.698Z,7.45
2023-05-07T04:33:57.908Z,7.82
2023-05-07T04:37:00.944Z,7.50
2023-05-07T04:40:04.272Z,8.55
2023-05-07T04:43:08.660Z,8.90
2023-05-07T04:46:16.652Z,7.20
2023-05-07T04:49:19.539Z,8.38
2023-05-07T04:52:21.943Z,8.50
2023-05-07T04:55:24.490Z,8.43
2023-05-07T04:58:27.032Z,9.90
2023-05-07T05:01:29.524Z,8.40
2023-05-07T05:04:32.093Z,10.38
2023-05-07T05:07:34.792Z,11.60
2023-05-07T05:10:37.618Z,9.10
2023-05-07T05:13:41.480Z,9.82
2023-05-07T05:16:52.418Z,10.75
2023-05-07T05:19:55.307Z,8.65
2023-05-07T05:22:57.689Z,9.68
2023-05-07T05:26:00.308Z,11.43
2023-05-07T05:29:05.828Z,8.43
2023-05-07T05:32:08.536Z,8.68
2023-05-07T05:35:11.031Z,8.65
2023-05-07T05:38:15.055Z,10.07
2023-05-07T05:41:17.590Z,9.93
2023-05-07T05:44:20.500Z,9.65
2023-05-07T05:47:24.002Z,12.60
2023-05-07T05:50:29.259Z,9.98
2023-05-07T05:53:31.642Z,10.88
2023-05-07T05:56:34.675Z,10.40
2023-05-07T05:59:37.864Z,9.98
2023-05-07T06:02:40.320Z,11.15
2023-05-07T06:05:43.446Z,11.57
2023-05-07T06:08:46.150Z,8.77
2023-05-07T06:11:52.577Z,11.05
2023-05-07T06:14:55.144Z,10.68
2023-05-07T06:17:58.641Z,9.25
2023-05-07T06:21:01.135Z,10.32
2023-05-07T06:24:07.185Z,9.23
2023-05-07T06:27:10.004Z,10.70
2023-05-07T06:30:13.520Z,10.30
2023-05-07T06:33:16.098Z,12.07
2023-05-07T06:36:18.803Z,9.50
2023-05-07T06:39:22.302Z,11.80
2023-05-07T06:42:24.567Z,10.00
2023-05-07T06:45:32.571Z,10.10
2023-05-07T06:48:35.826Z,10.30
2023-05-07T06:51:41.312Z,10.27
2023-05-07T06:54:43.948Z,10.38
2023-05-07T06:57:47.513Z,10.30
2023-05-07T07:00:51.281Z,10.10
2023-05-07T07:03:53.648Z,9.60
2023-05-07T07:06:58.148Z,11.20
2023-05-07T07:10:00.529Z,9.07
2023-05-07T07:13:04.877Z,9.07
2023-05-07T07:16:07.692Z,8.13
2023-05-07T07:19:10.164Z,9.30
2023-05-07T07:22:13.040Z,8.93
2023-05-07T07:25:15.491Z,8.52
2023-05-07T07:28:18.898Z,8.85
2023-05-07T07:31:21.489Z,8.93
2023-05-07T07:34:25.948Z,9.57
2023-05-07T07:37:28.726Z,10.02
2023-05-07T07:40:31.320Z,9.38
2023-05-07T07:43:33.865Z,9.75
2023-05-07T07:46:36.479Z,9.50
2023-05-07T07:49:39.271Z,9.05
2023-05-07T07:52:44.047Z,10.52
2023-05-07T07:55:48.203Z,9.35
2023-05-07T07:58:53.592Z,10.60
2023-05-07T08:01:56.903Z,9.73
2023-05-07T08:05:01.416Z,10.32
2023-05-07T08:08:03.810Z,10.20
2023-05-07T08:11:09.231Z,10.10
2023-05-07T08:14:12.922Z,9.95
2023-05-07T08:17:17.184Z,9.80
2023-05-07T08:20:20.762Z,9.38
2023-05-07T08:23:23.607Z,11.45
2023-05-07T08:26:26.534Z,11.93
2023-05-07T08:29:29.367Z,10.40
2023-05-07T08:32:31.951Z,10.95
2023-05-07T08:35:34.287Z,11.15
2023-05-07T08:38:37.080Z,11.00
2023-05-07T08:41:39.742Z,9.77
2023-05-07T08:44:45.213Z,11.60
2023-05-07T08:47:59.741Z,10.35
2023-05-07T08:51:07.095Z,10.75
2023-05-07T08:54:12.055Z,12.57
2023-05-07T08:57:14.461Z,9.48
2023-05-07T09:00:17.477Z,10.82
2023-05-07T09:03:23.233Z,10.88
2023-05-07T09:06:28.237Z,9.82
2023-05-07T09:09:31.194Z,10.90
2023-05-07T09:12:33.781Z,12.20
2023-05-07T09:15:36.525Z,10.73
2023-05-07T09:18:43.049Z,10.50
2023-05-07T09:21:46.997Z,11.43
2023-05-07T09:24:51.787Z,10.27
2023-05-07T09:27:57.878Z,10.75
2023-05-07T09:31:00.371Z,10.38
2023-05-07T09:34:02.864Z,12.07
2023-05-07T09:37:08.438Z,10.10
2023-05-07T09:40:25.770Z,10.52
2023-05-07T09:43:37.080Z,12.95
2023-05-07T09:46:45.084Z,12.77
2023-05-07T09:49:59.312Z,11.23
2023-05-07T09:53:03.208Z,12.38
2023-05-07T09:56:06.847Z,12.50
2023-05-07T09:59:11.666Z,13.07
2023-05-07T10:02:16.873Z,12.13
2023-05-07T10:05:27.371Z,11.82
2023-05-07T10:08:32.626Z,11.80
2023-05-07T10:11:37.881Z,12.82
2023-05-07T10:14:41.653Z,11.93
2023-05-07T10:17:46.178Z,12.25
2023-05-07T10:20:52.368Z,12.68
2023-05-07T10:23:58.418Z,14.13
2023-05-07T10:27:04.089Z,12.48
2023-05-07T10:30:12.556Z,12.10
2023-05-07T10:33:20.044Z,13.90
2023-05-07T10:36:24.885Z,13.13
2023-05-07T10:39:29.126Z,13.13
2023-05-07T10:42:31.426Z,12.70
2023-05-07T10:45:34.552Z,11.43
2023-05-07T10:49:09.665Z,11.85
2023-05-07T10:52:24.547Z,13.95
2023-05-07T10:55:33.633Z,12.27
2023-05-07T10:58:44.054Z,13.90
2023-05-07T11:01:59.605Z,11.77
2023-05-07T11:05:30.110Z,11.82
2023-05-07T11:08:53.865Z,12.85
2023-05-07T11:11:59.359Z,12.05
2023-05-07T11:15:17.177Z,12.25
2023-05-07T11:18:19.912Z,12.65
2023-05-07T11:21:34.559Z,12.98
2023-05-07T11:24:44.868Z,12.00
2023-05-07T11:27:49.530Z,13.90
2023-05-07T11:30:52.956Z,12.52
2023-05-07T11:33:56.939Z,11.38
2023-05-07T11:37:00.105Z,11.38
2023-05-07T11:40:24.204Z,14.07
2023-05-07T11:43:26.478Z,12.70
2023-05-07T11:46:29.937Z,11.10
2023-05-07T11:49:32.357Z,11.68
2023-05-07T11:52:35.528Z,11.65
2023-05-07T11:55:37.823Z,10.63
2023-05-07T11:58:40.915Z,12.35
2023-05-07T12:01:47.558Z,13.38
2023-05-07T12:04:50.096Z,11.35
2023-05-07T12:08:00.254Z,12.00
2023-05-07T12:17:11.032Z,10.55
2023-05-07T12:20:14.168Z,9.98
2023-05-07T12:23:16.852Z,11.30
2023-05-07T12:26:21.992Z,10.43
2023-05-07T12:29:25.968Z,11.20
2023-05-07T12:32:28.560Z,10.27
2023-05-07T12:35:32.579Z,10.07
2023-05-07T12:38:39.662Z,11.15
2023-05-07T12:41:59.911Z,12.02
2023-05-07T12:45:08.889Z,12.63
2023-05-07T12:48:12.048Z,10.57
2023-05-07T12:51:16.294Z,10.20
2023-05-07T12:54:36.596Z,11.10
2023-05-07T12:57:52.651Z,11.00
2023-05-07T13:01:00.442Z,11.02
2023-05-07T13:04:04.911Z,11.27
2023-05-07T13:07:07.324Z,10.23
2023-05-07T13:10:10.852Z,9.70
2023-05-07T13:13:13.124Z,11.07
2023-05-07T13:16:15.704Z,11.15
2023-05-07T13:19:18.751Z,10.20
2023-05-07T13:22:21.163Z,10.95
2023-05-07T13:25:23.448Z,10.35
2023-05-07T13:28:27.000Z,12.43
2023-05-07T13:31:29.299Z,10.98
2023-05-07T13:34:31.876Z,11.95
2023-05-07T13:37:34.172Z,11.13
2023-05-07T13:40:36.502Z,11.43
2023-05-07T13:43:38.769Z,12.95
2023-05-07T13:46:41.228Z,11.38
2023-05-07T13:49:43.622Z,11.32
2023-05-07T13:52:51.951Z,9.90
2023-05-07T13:55:54.157Z,10.98
2023-05-07T13:59:00.596Z,11.98
2023-05-07T14:02:03.526Z,11.93
2023-05-07T14:05:06.506Z,11.82
2023-05-07T14:08:09.177Z,12.20
2023-05-07T14:11:11.572Z,10.75
2023-05-07T14:14:13.925Z,10.57
2023-05-07T14:17:16.196Z,9.90
2023-05-07T14:20:18.706Z,9.65
2023-05-07T14:23:23.327Z,10.05
2023-05-07T14:26:25.587Z,11.18
2023-05-07T14:29:27.800Z,8.45
2023-05-07T14:32:30.197Z,10.10
2023-05-07T14:35:32.546Z,10.23
2023-05-07T14:38:34.901Z,10.25
2023-05-07T14:41:37.157Z,10.65
2023-05-07T14:44:41.700Z,8.63
2023-05-07T14:47:44.016Z,8.57
2023-05-07T14:50:49.586Z,8.23
2023-05-07T14:53:52.326Z,7.43
2023-05-07T14:57:15.001Z,10.57
2023-05-07T15:00:17.489Z,10.02
2023-05-07T15:03:24.516Z,7.60
2023-05-07T15:06:28.220Z,8.13
2023-05-07T15:09:30.977Z,8.20
2023-05-07T15:12:33.339Z,7.15
2023-05-07T15:15:35.855Z,9.00
2023-05-07T15:18:38.688Z,6.88
2023-05-07T15:21:41.095Z,7.85
2023-05-07T15:24:43.378Z,8.90
2023-05-07T15:27:45.810Z,8.82
2023-05-07T15:30:48.095Z,8.38
2023-05-07T15:33:53.064Z,8.23
2023-05-07T15:36:57.925Z,7.63
2023-05-07T15:40:00.292Z,7.60
2023-05-07T15:43:03.771Z,7.82
2023-05-07T15:46:06.682Z,8.57
2023-05-07T15:49:09.103Z,7.35
2023-05-07T15:52:12.076Z,7.95
2023-05-07T15:55:15.202Z,7.50
2023-05-07T15:58:20.533Z,7.25
2023-05-07T16:01:25.370Z,8.30
2023-05-07T16:04:28.508Z,7.30
2023-05-07T16:07:30.855Z,7.93
2023-05-07T16:10:33.172Z,8.10
2023-05-07T16:13:36.687Z,6.85
2023-05-07T16:16:41.131Z,7.05
2023-05-07T16:19:43.523Z,8.40
2023-05-07T16:22:46.631Z,6.40
2023-05-07T16:25:50.292Z,6.68
2023-05-07T16:28:52.556Z,8.48
2023-05-07T16:31:55.044Z,5.82
2023-05-07T16:34:57.307Z,6.80
2023-05-07T16:37:59.607Z,8.57
2023-05-07T16:41:01.972Z,8.05
2023-05-07T16:44:04.572Z,6.00
2023-05-07T16:47:06.878Z,5.57
2023-05-07T16:50:09.570Z,5.50
2023-05-07T16:53:12.345Z,5.95
2023-05-07T16:56:14.565Z,5.82
2023-05-07T16:59:17.557Z,6.13
2023-05-07T17:02:20.683Z,6.90
2023-05-07T17:05:22.975Z,5.28
2023-05-07T17:08:25.304Z,5.20
2023-05-07T17:11:31.291Z,5.15
2023-05-07T17:14:33.629Z,6.63
2023-05-07T17:17:38.903Z,7.00
2023-05-07T17:20:41.329Z,4.80
2023-05-07T17:23:43.553Z,5.07
2023-05-07T17:26:47.648Z,5.65
2023-05-07T17:29:50.025Z,7.40
2023-05-07T17:32:52.362Z,5.63
2023-05-07T17:35:55.300Z,4.93
2023-05-07T17:38:57.632Z,5.70
2023-05-07T17:41:59.961Z,5.72
2023-05-07T17:45:02.326Z,6.32
2023-05-07T17:48:05.955Z,5.53
2023-05-07T17:51:08.650Z,5.53
2023-05-07T17:54:11.325Z,5.35
2023-05-07T17:57:13.846Z,4.72
2023-05-07T18:00:16.587Z,4.90
2023-05-07T18:03:18.910Z,5.47
2023-05-07T18:06:23.334Z,5.97
2023-05-07T18:09:25.639Z,5.35
2023-05-07T18:12:28.309Z,5.47
2023-05-07T18:15:30.648Z,5.57
2023-05-07T18:18:35.466Z,4.95
2023-05-07T18:21:37.992Z,6.50
2023-05-07T18:24:40.238Z,7.72
2023-05-07T18:27:42.528Z,5.28
2023-05-07T18:30:45.027Z,6.53
2023-05-07T18:33:47.307Z,5.75
2023-05-07T18:36:49.820Z,6.03
2023-05-07T18:39:52.148Z,5.82
2023-05-07T18:42:54.519Z,6.95
2023-05-07T18:45:56.855Z,6.18
2023-05-07T18:48:59.077Z,7.55
2023-05-07T18:52:01.584Z,6.50
2023-05-07T18:55:04.422Z,5.82
2023-05-07T18:58:06.654Z,6.10
2023-05-07T19:01:09.221Z,6.28
2023-05-07T19:04:11.683Z,5.65
2023-05-07T19:07:14.648Z,7.28
2023-05-07T19:10:17.610Z,5.50
2023-05-07T19:13:20.039Z,5.80
2023-05-07T19:16:22.577Z,6.07
2023-05-07T19:19:25.105Z,6.32
2023-05-07T19:22:27.401Z,5.43
2023-05-07T19:25:29.604Z,5.70
2023-05-07T19:28:31.788Z,5.65
2023-05-07T19:31:34.379Z,6.57
2023-05-07T19:34:36.580Z,7.50
2023-05-07T19:37:39.184Z,6.93
2023-05-07T19:40:41.675Z,6.13
2023-05-07T19:43:43.992Z,7.03
2023-05-07T19:46:48.010Z,5.75
2023-05-07T19:49:50.243Z,6.65
2023-05-07T19:52:52.788Z,4.97
2023-05-07T19:56:07.034Z,4.90
2023-05-07T19:59:09.320Z,7.03
2023-05-07T20:02:12.436Z,6.88
2023-05-07T20:05:14.982Z,5.47
2023-05-07T20:08:17.415Z,5.18
2023-05-07T20:11:20.630Z,4.97
2023-05-07T20:14:23.172Z,6.53
2023-05-07T20:17:25.674Z,5.47
2023-05-07T20:20:28.104Z,4.97
2023-05-07T20:23:30.408Z,6.25
2023-05-07T20:26:32.727Z,6.13
2023-05-07T20:29:35.041Z,5.68
2023-05-07T20:32:37.395Z,5.57
2023-05-07T20:35:39.959Z,5.15
2023-05-07T20:38:42.183Z,4.80
2023-05-07T20:41:44.728Z,6.00
2023-05-07T20:44:46.987Z,5.25
2023-05-07T20:47:49.324Z,4.90
2023-05-07T20:50:51.720Z,5.57
2023-05-07T20:53:53.945Z,4.80
2023-05-07T20:56:57.177Z,4.97
2023-05-07T20:59:59.506Z,5.18
2023-05-07T21:03:02.916Z,4.88
2023-05-07T21:06:05.257Z,5.20
2023-05-07T21:09:08.098Z,5.00
2023-05-07T21:12:10.331Z,5.40
2023-05-07T21:15:12.555Z,5.22
2023-05-07T21:18:15.090Z,4.80
2023-05-07T21:21:17.461Z,5.45
2023-05-07T21:24:19.753Z,5.07
2023-05-07T21:27:22.034Z,5.07
2023-05-07T21:30:24.494Z,4.53
2023-05-07T21:33:26.728Z,5.68
2023-05-07T21:36:29.402Z,5.43
2023-05-07T21:39:31.721Z,5.63
2023-05-07T21:42:34.121Z,6.85
2023-05-07T21:45:36.417Z,5.22
2023-05-07T21:48:39.112Z,5.22
2023-05-07T21:51:41.604Z,6.40
2023-05-07T21:54:44.296Z,6.20
2023-05-07T21:58:01.259Z,7.03
2023-05-07T22:01:07.647Z,6.00
2023-05-07T22:04:10.084Z,5.40
2023-05-07T22:07:12.383Z,4.60
2023-05-07T22:10:14.852Z,4.40
2023-05-07T22:13:17.578Z,5.22
2023-05-07T22:16:19.979Z,5.50
2023-05-07T22:19:22.293Z,4.35
2023-05-07T22:22:24.570Z,4.70
2023-05-07T22:25:27.016Z,4.38
2023-05-07T22:28:29.274Z,4.97
2023-05-07T22:31:31.663Z,4.60
2023-05-07T22:34:33.961Z,5.93
2023-05-07T22:37:36.291Z,5.63
2023-05-07T22:40:38.464Z,4.05
2023-05-07T22:43:40.920Z,4.35
2023-05-07T22:46:43.235Z,5.70
2023-05-07T22:49:45.960Z,6.50
2023-05-07T22:52:49.355Z,6.40
2023-05-07T22:55:51.828Z,4.63
2023-05-07T22:58:54.041Z,4.20
2023-05-07T23:01:56.392Z,4.07
2023-05-07T23:05:01.977Z,5.15
2023-05-07T23:08:04.779Z,5.57
2023-05-07T23:11:07.978Z,4.82
2023-05-07T23:14:10.232Z,4.30
2023-05-07T23:17:12.499Z,3.97
2023-05-07T23:20:15.344Z,5.13
2023-05-07T23:23:18.012Z,4.95
2023-05-07T23:26:20.447Z,7.07
2023-05-07T23:29:22.652Z,3.78
2023-05-07T23:32:25.014Z,4.13
2023-05-07T23:35:27.282Z,3.83
2023-05-07T23:38:29.550Z,5.13
2023-05-07T23:41:31.787Z,2.78
2023-05-07T23:44:34.111Z,4.57
2023-05-07T23:47:36.392Z,4.47
2023-05-07T23:50:38.566Z,4.75
2023-05-07T23:53:40.927Z,5.57
2023-05-07T23:56:43.361Z,4.07
2023-05-07T23:59:45.681Z,2.92
